Time;durP1;ratioP1;P1;durP2;ratioP2;P2;SDS_P1;SDS_P2;PMS_P1;PMS_P2;Temp;Humidity;BMP_temperature;BMP_pressure;BME280_temperature;BME280_humidity;BME280_pressure;Samples;Min_cycle;Max_cycle;Signal;HPM_P1;HPM_P2
2022/06/19 00:01:01;;;;;;;13.88;3.88;;;22.90;81.40;;;;;;4671897;28;10000112;-73
2022/06/19 00:03:35;;;;;;;15.05;4.20;;;22.80;81.50;;;;;;5022014;28;20033;-74
2022/06/19 00:06:01;;;;;;;10.95;3.75;;;22.80;81.50;;;;;;5021915;28;20025;-73
2022/06/19 00:08:28;;;;;;;13.13;4.20;;;22.80;82.10;;;;;;5012943;28;20026;-73
2022/06/19 00:10:54;;;;;;;15.65;4.28;;;22.70;82.50;;;;;;5025938;28;20053;-73
2022/06/19 00:13:20;;;;;;;11.27;3.80;;;22.70;83.30;;;;;;5026465;28;20060;-73
2022/06/19 00:15:45;;;;;;;14.82;4.07;;;22.60;83.70;;;;;;5022579;28;20030;-73
2022/06/19 00:18:11;;;;;;;9.45;3.67;;;22.60;84.00;;;;;;5022748;28;20037;-73
2022/06/19 00:20:37;;;;;;;7.95;4.07;;;22.60;84.30;;;;;;5012265;28;20635;-73
2022/06/19 00:23:03;;;;;;;13.65;4.22;;;22.50;84.70;;;;;;5028018;28;20034;-73
2022/06/19 00:25:28;;;;;;;8.05;3.60;;;22.50;86.00;;;;;;5021813;28;20030;-73
2022/06/19 00:27:55;;;;;;;11.40;3.58;;;22.50;85.70;;;;;;5023579;28;20250;-73
2022/06/19 00:30:21;;;;;;;15.48;4.32;;;22.40;85.10;;;;;;5022195;28;20100;-73
2022/06/19 00:32:46;;;;;;;10.02;3.63;;;22.40;84.70;;;;;;5026862;28;20030;-73
2022/06/19 00:35:12;;;;;;;10.60;3.42;;;22.40;84.90;;;;;;5029279;28;20065;-73
2022/06/19 00:37:38;;;;;;;10.13;3.15;;;22.30;84.60;;;;;;5020016;28;20026;-73
2022/06/19 00:40:08;;;;;;;7.72;3.03;;;22.30;84.60;;;;;;5009341;28;20113;-73
2022/06/19 00:42:33;;;;;;;9.07;3.47;;;22.30;85.10;;;;;;5026603;28;20036;-74
2022/06/19 00:45:00;;;;;;;8.18;3.50;;;22.30;85.60;;;;;;5025978;28;20026;-74
2022/06/19 00:47:29;;;;;;;11.45;3.30;;;22.20;85.90;;;;;;5026267;28;20037;-74
2022/06/19 00:50:03;;;;;;;9.02;3.42;;;22.20;85.70;;;;;;5022497;28;20028;-73
2022/06/19 00:52:38;;;;;;;9.70;3.55;;;22.20;85.70;;;;;;5026350;28;20096;-73
2022/06/19 00:55:09;;;;;;;7.88;3.42;;;22.20;85.70;;;;;;5021107;28;20040;-74
2022/06/19 00:57:42;;;;;;;6.60;3.17;;;22.10;85.90;;;;;;5025812;28;20084;-74
2022/06/19 01:00:15;;;;;;;8.57;3.30;;;22.10;86.10;;;;;;5013774;28;20042;-74
2022/06/19 01:02:42;;;;;;;;;;;22.10;86.30;;;;;;5029464;28;20580;-73
2022/06/19 01:05:11;;;;;;;14.95;3.90;;;22.00;86.40;;;;;;5025495;28;19967;-74
2022/06/19 01:07:39;;;;;;;12.02;3.47;;;22.00;86.50;;;;;;5023959;28;20441;-74
2022/06/19 01:10:06;;;;;;;10.57;3.60;;;22.00;86.90;;;;;;5016117;28;20033;-73
2022/06/19 01:12:32;;;;;;;9.32;3.42;;;22.00;86.90;;;;;;5023043;28;20704;-74
2022/06/19 01:15:03;;;;;;;9.00;2.97;;;21.90;87.00;;;;;;5016954;28;20513;-73
2022/06/19 01:17:31;;;;;;;9.30;3.17;;;21.90;87.20;;;;;;5024585;28;20075;-74
2022/06/19 01:19:57;;;;;;;9.73;3.33;;;21.90;87.50;;;;;;5021245;28;20521;-73
2022/06/19 01:22:42;;;;;;;13.68;3.40;;;21.80;87.60;;;;;;5025279;28;20327;-73
2022/06/19 01:25:11;;;;;;;8.68;3.35;;;21.80;87.90;;;;;;5022084;28;20183;-73
2022/06/19 01:30:30;;;;;;;11.40;3.20;;;21.80;88.30;;;;;;5021371;28;20033;-73
2022/06/19 01:32:59;;;;;;;8.40;3.15;;;21.80;88.40;;;;;;5022818;28;20056;-73
2022/06/19 01:35:29;;;;;;;10.85;3.67;;;21.80;88.70;;;;;;5014698;28;20037;-73
2022/06/19 01:37:55;;;;;;;11.65;3.42;;;21.80;88.80;;;;;;5024486;28;20017;-73
2022/06/19 01:40:29;;;;;;;10.15;3.50;;;21.80;89.00;;;;;;5020349;28;20104;-73
2022/06/19 01:42:55;;;;;;;15.30;3.95;;;21.80;88.80;;;;;;5030144;28;20026;-73
2022/06/19 01:45:21;;;;;;;15.10;3.83;;;21.80;88.80;;;;;;5015846;28;20029;-74
2022/06/19 01:47:48;;;;;;;13.60;3.55;;;21.70;88.80;;;;;;5021033;28;20030;-74
2022/06/19 01:50:21;;;;;;;12.55;3.40;;;21.70;88.70;;;;;;5016541;28;20033;-73
2022/06/19 01:52:51;;;;;;;13.20;3.60;;;21.70;88.70;;;;;;5021467;28;20091;-74
2022/06/19 01:55:19;;;;;;;11.07;3.25;;;21.70;88.80;;;;;;5020692;28;20616;-73
2022/06/19 01:57:49;;;;;;;8.23;3.38;;;21.60;88.70;;;;;;5021468;28;20056;-74
2022/06/19 02:00:21;;;;;;;10.48;3.30;;;21.60;88.70;;;;;;5007588;28;20477;-73
2022/06/19 02:02:54;;;;;;;9.80;3.23;;;21.60;88.80;;;;;;5022084;28;20029;-73
2022/06/19 02:05:20;;;;;;;8.15;3.33;;;21.60;88.90;;;;;;5019007;28;20303;-74
2022/06/19 02:07:46;;;;;;;12.73;3.63;;;21.50;89.60;;;;;;5024002;28;20057;-73
2022/06/19 02:10:12;;;;;;;12.90;3.63;;;21.50;90.00;;;;;;5008956;28;20433;-73
2022/06/19 02:12:38;;;;;;;10.75;3.08;;;21.50;90.00;;;;;;5025136;28;20037;-74
2022/06/19 02:15:09;;;;;;;12.88;3.92;;;21.50;90.00;;;;;;5023511;28;20512;-74
2022/06/19 02:17:42;;;;;;;10.45;3.88;;;21.40;90.00;;;;;;5021757;28;20432;-74
2022/06/19 02:20:09;;;;;;;8.18;3.63;;;21.50;90.20;;;;;;5017355;28;20033;-74
2022/06/19 02:22:35;;;;;;;11.57;3.65;;;21.50;90.20;;;;;;5023022;28;20034;-74
2022/06/19 02:25:03;;;;;;;10.32;3.33;;;21.40;90.20;;;;;;5017251;28;20469;-75
2022/06/19 02:27:32;;;;;;;9.43;3.75;;;21.40;90.30;;;;;;5024094;28;20295;-74
2022/06/19 02:29:59;;;;;;;9.38;3.60;;;21.30;90.50;;;;;;5022384;28;20029;-73
2022/06/19 02:32:34;;;;;;;10.55;3.80;;;21.30;90.60;;;;;;5021720;28;20029;-74
2022/06/19 02:35:00;;;;;;;8.60;3.03;;;21.20;90.90;;;;;;5021828;28;20069;-73
2022/06/19 02:37:31;;;;;;;14.35;3.83;;;21.10;91.10;;;;;;5012540;28;20336;-73
2022/06/19 02:40:35;;;;;;;11.50;3.20;;;21.10;91.30;;;;;;5015654;28;20028;-73
2022/06/19 02:43:01;;;;;;;10.32;3.42;;;21.10;91.60;;;;;;4944228;28;20067;-73
2022/06/19 02:45:30;;;;;;;12.00;3.30;;;21.00;91.80;;;;;;5003273;28;20500;-73
2022/06/19 02:47:58;;;;;;;14.80;4.18;;;21.00;92.00;;;;;;5022052;28;20040;-73
2022/06/19 02:50:27;;;;;;;9.52;3.50;;;21.10;92.20;;;;;;5016252;28;20401;-73
2022/06/19 02:52:53;;;;;;;12.57;3.83;;;21.00;92.00;;;;;;5024892;28;20377;-73
2022/06/19 02:55:20;;;;;;;7.10;3.30;;;21.00;92.10;;;;;;5021382;28;20337;-73
2022/06/19 02:57:46;;;;;;;10.63;3.58;;;21.00;92.40;;;;;;5025975;28;20551;-72
2022/06/19 03:00:22;;;;;;;9.27;3.30;;;20.90;92.60;;;;;;5019652;28;20013;-73
2022/06/19 03:02:52;;;;;;;11.55;3.50;;;20.90;92.60;;;;;;5020883;28;20572;-73
2022/06/19 03:05:23;;;;;;;20.08;4.45;;;20.90;92.40;;;;;;5019073;28;20505;-73
2022/06/19 03:07:49;;;;;;;11.35;3.30;;;20.90;92.30;;;;;;5023659;28;20509;-73
2022/06/19 03:10:14;;;;;;;9.55;3.53;;;20.80;92.60;;;;;;5021220;28;20520;-74
2022/06/19 03:12:40;;;;;;;9.20;3.28;;;20.80;93.30;;;;;;5011661;28;20042;-74
2022/06/19 03:15:06;;;;;;;9.05;3.65;;;20.70;93.30;;;;;;5020577;28;20056;-73
2022/06/19 03:17:32;;;;;;;15.55;4.30;;;20.70;93.50;;;;;;5011051;28;20385;-73
2022/06/19 03:19:58;;;;;;;11.38;3.35;;;20.70;93.70;;;;;;5015460;28;20037;-73
2022/06/19 03:22:24;;;;;;;15.93;3.85;;;20.70;93.80;;;;;;5022415;28;20418;-73
2022/06/19 03:24:49;;;;;;;9.73;3.42;;;20.60;93.90;;;;;;5015469;28;20075;-74
2022/06/19 03:27:16;;;;;;;12.02;3.85;;;20.70;94.00;;;;;;5018185;28;20029;-74
2022/06/19 03:29:41;;;;;;;9.20;3.58;;;20.70;94.10;;;;;;5020442;28;20057;-74
2022/06/19 03:32:12;;;;;;;10.35;3.13;;;20.60;94.40;;;;;;5009946;28;20065;-73
2022/06/19 03:34:38;;;;;;;10.88;3.60;;;20.60;94.60;;;;;;5021896;28;20045;-74
2022/06/19 03:37:04;;;;;;;7.93;3.15;;;20.60;94.80;;;;;;5024404;28;20026;-74
2022/06/19 03:39:30;;;;;;;10.77;3.08;;;20.70;95.00;;;;;;5028165;28;20104;-74
2022/06/19 03:41:56;;;;;;;11.38;3.35;;;20.70;95.10;;;;;;5013680;28;20037;-74
2022/06/19 03:44:22;;;;;;;16.38;3.75;;;20.70;95.10;;;;;;5027537;28;20080;-74
2022/06/19 03:46:47;;;;;;;12.15;3.40;;;20.70;95.30;;;;;;5017739;28;20034;-74
2022/06/19 03:49:13;;;;;;;10.23;3.20;;;20.80;95.60;;;;;;5019404;28;20035;-73
2022/06/19 03:51:39;;;;;;;12.88;3.50;;;20.80;95.50;;;;;;5029038;28;20029;-73
2022/06/19 03:54:07;;;;;;;13.10;3.55;;;20.80;95.50;;;;;;5025830;28;20056;-73
2022/06/19 03:56:33;;;;;;;11.68;3.50;;;20.90;95.40;;;;;;5024707;28;20123;-73
2022/06/19 03:58:59;;;;;;;13.98;4.10;;;20.90;95.20;;;;;;5023731;28;20254;-73
2022/06/19 04:01:32;;;;;;;10.38;3.92;;;21.00;95.20;;;;;;5019947;28;20459;-73
2022/06/19 04:03:58;;;;;;;11.20;3.50;;;21.10;95.30;;;;;;5014074;28;20556;-73
2022/06/19 04:06:28;;;;;;;15.93;3.72;;;21.10;95.40;;;;;;5024008;28;20604;-73
2022/06/19 04:08:54;;;;;;;13.35;3.60;;;21.20;95.10;;;;;;5023144;28;20025;-73
2022/06/19 04:11:22;;;;;;;14.55;3.78;;;21.30;94.70;;;;;;5021195;28;20054;-73
2022/06/19 04:13:48;;;;;;;13.65;3.58;;;21.50;94.20;;;;;;5024731;28;20061;-74
2022/06/19 04:16:19;;;;;;;10.88;3.30;;;22.00;93.70;;;;;;5026694;28;20509;-73
2022/06/19 04:18:45;;;;;;;14.90;3.88;;;22.50;92.40;;;;;;5017346;28;20072;-73
2022/06/19 04:21:16;;;;;;;12.00;3.50;;;22.90;91.40;;;;;;5015655;28;20112;-73
2022/06/19 04:23:42;;;;;;;13.55;3.85;;;23.40;90.70;;;;;;5024472;28;20037;-73
2022/06/19 04:26:10;;;;;;;12.63;3.92;;;23.60;90.10;;;;;;5021902;28;20093;-73
2022/06/19 04:28:36;;;;;;;14.38;3.95;;;23.80;90.10;;;;;;5022690;28;20072;-73
2022/06/19 04:31:02;;;;;;;15.95;3.85;;;23.80;89.60;;;;;;5015018;28;20377;-74
2022/06/19 04:33:28;;;;;;;18.30;4.20;;;23.60;90.00;;;;;;5024082;28;20045;-73
2022/06/19 04:35:54;;;;;;;18.00;3.92;;;23.50;89.90;;;;;;5023169;28;20040;-73
2022/06/19 04:38:19;;;;;;;16.70;3.72;;;23.40;90.20;;;;;;5015606;28;20033;-74
2022/06/19 04:40:45;;;;;;;17.45;3.53;;;23.30;90.00;;;;;;5017447;28;20406;-75
2022/06/19 04:43:11;;;;;;;19.70;3.78;;;23.20;90.10;;;;;;5026081;28;20033;-74
2022/06/19 04:45:38;;;;;;;20.08;4.00;;;23.10;90.00;;;;;;5021516;28;20029;-75
2022/06/19 04:48:04;;;;;;;18.88;4.18;;;23.20;90.00;;;;;;5025061;28;20041;-75
2022/06/19 04:50:30;;;;;;;13.98;3.33;;;23.20;90.20;;;;;;4665455;28;10000478;-75
2022/06/19 04:52:56;;;;;;;14.95;3.90;;;23.30;90.20;;;;;;5025729;28;20045;-75
2022/06/19 04:55:22;;;;;;;20.30;4.43;;;23.40;90.00;;;;;;5014998;28;20389;-75
2022/06/19 04:57:47;;;;;;;20.58;4.43;;;23.50;88.90;;;;;;5019021;28;20033;-75
2022/06/19 05:00:16;;;;;;;19.80;3.65;;;23.60;88.50;;;;;;5016633;28;20017;-74
2022/06/19 05:02:42;;;;;;;17.85;3.90;;;23.70;88.50;;;;;;5016226;28;20470;-75
2022/06/19 05:05:15;;;;;;;20.83;4.00;;;23.80;88.40;;;;;;5018321;28;20045;-73
2022/06/19 05:07:41;;;;;;;20.45;4.03;;;23.90;88.20;;;;;;5017360;28;20447;-75
2022/06/19 05:10:07;;;;;;;19.10;4.07;;;24.00;88.00;;;;;;5012649;28;20041;-75
2022/06/19 05:12:33;;;;;;;12.50;3.38;;;24.00;87.90;;;;;;5017037;28;20068;-75
2022/06/19 05:14:59;;;;;;;12.52;3.83;;;24.10;87.30;;;;;;5015847;28;20036;-75
2022/06/19 05:17:25;;;;;;;17.75;3.60;;;24.30;86.90;;;;;;5017805;28;20029;-74
2022/06/19 05:19:50;;;;;;;17.67;3.80;;;24.40;86.50;;;;;;5015882;28;20497;-75
2022/06/19 05:22:16;;;;;;;21.80;3.97;;;24.40;85.50;;;;;;5015425;28;20053;-75
2022/06/19 05:24:41;;;;;;;16.20;3.67;;;24.50;84.90;;;;;;5019175;28;20033;-76
2022/06/19 05:27:09;;;;;;;13.40;3.40;;;24.60;84.60;;;;;;5025002;28;20076;-75
2022/06/19 05:29:36;;;;;;;18.80;4.22;;;24.80;83.10;;;;;;5017326;28;20045;-74
2022/06/19 05:32:04;;;;;;;19.27;3.80;;;24.80;82.80;;;;;;5018692;28;20514;-74
2022/06/19 05:34:33;;;;;;;11.50;3.70;;;25.00;82.70;;;;;;5021578;28;20049;-74
2022/06/19 05:36:59;;;;;;;17.95;3.83;;;25.10;81.90;;;;;;5019125;28;20038;-74
2022/06/19 05:39:25;;;;;;;15.68;3.63;;;25.10;81.80;;;;;;5013932;28;20402;-75
2022/06/19 05:41:52;;;;;;;18.15;3.53;;;25.20;81.90;;;;;;5023902;28;20026;-75
2022/06/19 05:44:18;;;;;;;16.50;3.65;;;25.20;81.10;;;;;;5022532;28;20052;-75
2022/06/19 05:46:44;;;;;;;17.38;3.42;;;25.30;80.90;;;;;;5017401;28;20030;-74
2022/06/19 05:49:09;;;;;;;13.63;3.30;;;25.50;81.00;;;;;;5015677;28;20389;-76
2022/06/19 05:51:35;;;;;;;18.73;3.45;;;25.60;81.00;;;;;;5019499;28;20079;-75
2022/06/19 05:54:01;;;;;;;15.45;3.38;;;25.70;81.80;;;;;;5024163;28;22015;-74
2022/06/19 05:56:28;;;;;;;16.23;3.90;;;25.80;81.30;;;;;;5020667;28;20036;-74
2022/06/19 05:58:54;;;;;;;11.55;3.72;;;26.00;81.30;;;;;;5014331;28;20029;-76
2022/06/19 06:01:22;;;;;;;17.10;3.75;;;26.10;80.80;;;;;;5010924;28;20651;-74
2022/06/19 06:03:48;;;;;;;16.83;3.38;;;26.20;81.50;;;;;;5016128;28;20025;-74
2022/06/19 06:06:20;;;;;;;11.88;3.38;;;26.30;81.80;;;;;;5012008;28;20416;-74
2022/06/19 06:08:46;;;;;;;19.13;3.40;;;26.40;82.60;;;;;;5012490;28;20037;-75
2022/06/19 06:11:12;;;;;;;21.00;2.97;;;26.50;83.30;;;;;;5016388;28;20029;-74
2022/06/19 06:13:38;;;;;;;13.35;3.30;;;26.60;83.40;;;;;;5013354;28;20030;-75
2022/06/19 06:16:04;;;;;;;15.85;3.05;;;26.70;84.40;;;;;;5016758;28;20084;-74
2022/06/19 06:18:30;;;;;;;24.38;4.07;;;26.80;78.20;;;;;;5016203;28;20450;-73
2022/06/19 06:21:06;;;;;;;21.27;3.78;;;26.90;78.40;;;;;;5011195;28;20339;-73
2022/06/19 06:23:33;;;;;;;17.60;3.38;;;27.00;78.70;;;;;;5019800;28;20030;-74
2022/06/19 06:26:10;;;;;;;16.20;2.97;;;27.00;77.80;;;;;;5011420;28;20456;-73
2022/06/19 06:28:39;;;;;;;14.32;2.38;;;27.20;78.10;;;;;;5007513;28;20294;-73
2022/06/19 06:31:05;;;;;;;19.52;3.42;;;27.40;78.00;;;;;;5009981;28;20290;-73
2022/06/19 06:33:30;;;;;;;13.73;3.47;;;27.60;74.50;;;;;;5023913;28;20049;-74
2022/06/19 06:35:56;;;;;;;21.25;3.30;;;27.70;74.50;;;;;;5022067;28;20575;-73
2022/06/19 06:38:23;;;;;;;15.43;3.40;;;27.90;74.10;;;;;;5018047;28;20026;-73
2022/06/19 06:40:49;;;;;;;17.00;3.58;;;28.00;72.10;;;;;;5012822;28;20120;-74
2022/06/19 06:43:15;;;;;;;17.65;3.75;;;28.20;71.30;;;;;;5012312;28;20041;-74
2022/06/19 06:45:41;;;;;;;14.63;2.97;;;28.40;71.20;;;;;;5009620;28;20037;-74
2022/06/19 06:48:07;;;;;;;18.40;3.22;;;28.50;71.50;;;;;;5018954;28;20033;-74
2022/06/19 06:50:34;;;;;;;25.92;3.70;;;28.60;70.80;;;;;;5016532;28;20083;-74
2022/06/19 06:52:59;;;;;;;22.30;3.22;;;28.70;69.30;;;;;;5016172;28;20664;-74
2022/06/19 06:55:25;;;;;;;16.30;3.22;;;28.80;68.30;;;;;;5016460;28;20053;-74
2022/06/19 06:57:50;;;;;;;17.73;3.70;;;28.80;68.00;;;;;;5016339;28;20022;-74
2022/06/19 07:00:21;;;;;;;18.33;3.17;;;28.90;67.70;;;;;;5007202;28;20512;-74
2022/06/19 07:02:47;;;;;;;22.98;3.42;;;29.10;67.80;;;;;;5017190;28;20733;-76
2022/06/19 07:05:14;;;;;;;21.17;4.03;;;29.20;67.80;;;;;;5009837;28;20502;-74
2022/06/19 07:07:39;;;;;;;20.58;3.53;;;29.40;67.30;;;;;;5013217;28;21392;-73
2022/06/19 07:10:06;;;;;;;15.07;3.70;;;29.50;66.50;;;;;;5009733;28;20036;-75
2022/06/19 07:12:31;;;;;;;15.05;3.20;;;29.60;66.20;;;;;;5015368;28;20060;-75
2022/06/19 07:14:57;;;;;;;19.67;4.00;;;29.70;65.60;;;;;;5006341;28;20026;-74
2022/06/19 07:17:23;;;;;;;19.95;3.83;;;29.80;65.10;;;;;;5020116;28;20025;-75
2022/06/19 07:19:49;;;;;;;17.33;2.97;;;29.90;65.00;;;;;;5017797;28;20108;-75
2022/06/19 07:22:17;;;;;;;17.13;3.70;;;30.00;63.90;;;;;;5022400;28;20057;-75
2022/06/19 07:24:43;;;;;;;18.05;3.92;;;30.10;63.20;;;;;;5014335;28;20033;-77
2022/06/19 07:27:09;;;;;;;16.90;3.53;;;30.10;63.30;;;;;;5012424;28;20518;-76
2022/06/19 07:29:44;;;;;;;21.08;3.78;;;30.20;63.20;;;;;;5014919;28;20104;-75
2022/06/19 07:32:11;;;;;;;17.92;3.40;;;30.20;62.60;;;;;;5017448;28;20042;-75
2022/06/19 07:34:36;;;;;;;19.77;3.83;;;30.20;62.80;;;;;;5015439;28;20053;-78
2022/06/19 07:37:04;;;;;;;19.20;3.55;;;30.30;63.50;;;;;;5014765;28;20061;-76
2022/06/19 07:39:30;;;;;;;20.15;3.75;;;30.40;63.10;;;;;;5013782;28;20029;-76
2022/06/19 07:41:55;;;;;;;17.95;3.78;;;30.50;62.10;;;;;;5018445;28;20022;-74
2022/06/19 07:44:21;;;;;;;27.38;3.97;;;30.60;62.50;;;;;;5017216;28;20030;-74
2022/06/19 07:52:15;;;;;;;28.17;3.90;;;30.90;61.70;;;;;;5009547;28;20037;-74
2022/06/19 07:54:40;;;;;;;16.95;3.97;;;31.00;61.30;;;;;;5019104;28;20034;-74
2022/06/19 07:57:06;;;;;;;23.15;4.30;;;31.10;60.70;;;;;;5006610;28;20022;-74
2022/06/19 07:59:32;;;;;;;21.10;3.35;;;31.10;60.30;;;;;;5006815;28;20022;-74
2022/06/19 08:01:57;;;;;;;17.58;3.83;;;31.30;59.80;;;;;;5008989;28;20085;-74
2022/06/19 08:04:23;;;;;;;18.20;4.00;;;31.40;59.80;;;;;;5007931;28;20022;-74
2022/06/19 08:06:49;;;;;;;14.70;3.67;;;31.50;59.50;;;;;;5021956;28;20300;-74
2022/06/19 08:09:14;;;;;;;16.30;3.45;;;31.70;59.50;;;;;;5025746;28;20022;-74
2022/06/19 08:11:40;;;;;;;19.15;4.18;;;31.90;59.50;;;;;;5015778;28;20050;-74
2022/06/19 08:14:06;;;;;;;13.70;3.65;;;32.00;59.10;;;;;;5026429;28;20470;-74
2022/06/19 08:16:31;;;;;;;20.33;4.35;;;32.10;58.40;;;;;;5023755;28;20208;-74
2022/06/19 08:18:57;;;;;;;18.88;3.85;;;32.20;58.80;;;;;;5009531;28;20030;-74
2022/06/19 08:21:22;;;;;;;18.33;4.10;;;32.40;57.90;;;;;;5021335;28;20117;-74
2022/06/19 08:23:48;;;;;;;16.55;4.03;;;32.60;57.90;;;;;;5026025;28;20088;-74
2022/06/19 08:26:13;;;;;;;11.32;3.90;;;32.70;57.60;;;;;;5019525;28;20494;-74
2022/06/19 08:31:06;;;;;;;21.25;4.68;;;32.80;56.70;;;;;;5010112;28;20026;-74
2022/06/19 08:33:31;;;;;;;16.92;4.18;;;32.80;56.70;;;;;;5010522;28;20041;-75
2022/06/19 08:36:01;;;;;;;17.08;4.40;;;32.80;56.40;;;;;;5019636;28;20483;-74
2022/06/19 08:38:32;;;;;;;16.98;4.47;;;32.90;56.20;;;;;;5022334;28;20026;-74
2022/06/19 08:41:06;;;;;;;17.88;4.72;;;33.00;55.90;;;;;;5010085;28;20030;-74
2022/06/19 08:43:48;;;;;;;16.52;4.63;;;33.00;56.10;;;;;;5010853;28;20055;-74
2022/06/19 08:46:39;;;;;;;18.52;4.22;;;33.00;56.60;;;;;;5010327;28;20065;-74
2022/06/19 08:49:20;;;;;;;17.80;4.20;;;33.00;56.30;;;;;;5015516;28;20123;-74
2022/06/19 08:51:58;;;;;;;16.10;4.22;;;33.10;56.00;;;;;;5025105;28;20060;-74
2022/06/19 08:54:37;;;;;;;15.57;4.25;;;33.20;56.00;;;;;;5012175;28;20045;-74
2022/06/19 08:57:24;;;;;;;18.58;4.20;;;33.30;55.90;;;;;;5020443;28;20025;-74
2022/06/19 09:00:24;;;;;;;19.42;4.82;;;33.40;55.90;;;;;;5027476;28;20065;-74
2022/06/19 09:03:02;;;;;;;17.55;4.53;;;33.30;56.30;;;;;;5011521;28;20022;-74
2022/06/19 09:05:46;;;;;;;18.25;4.80;;;33.40;55.40;;;;;;5009522;28;20591;-74
2022/06/19 09:08:33;;;;;;;23.00;4.32;;;33.50;55.20;;;;;;5022958;28;20032;-74
2022/06/19 09:11:06;;;;;;;24.52;4.95;;;33.60;54.60;;;;;;5024568;28;20041;-74
2022/06/19 09:14:09;;;;;;;18.05;4.07;;;33.40;56.00;;;;;;5023029;28;20231;-74
2022/06/19 09:16:41;;;;;;;16.80;4.28;;;33.30;55.70;;;;;;5027893;28;20278;-75
2022/06/19 09:19:37;;;;;;;16.52;4.40;;;33.30;55.60;;;;;;5025854;28;20041;-74
2022/06/19 09:22:36;;;;;;;20.30;4.70;;;33.30;55.80;;;;;;5013913;28;20064;-75
2022/06/19 09:25:31;;;;;;;17.63;4.80;;;33.30;55.80;;;;;;5009224;28;20378;-74
2022/06/19 09:28:06;;;;;;;18.75;4.40;;;33.30;55.90;;;;;;5024071;28;20021;-74
2022/06/19 09:30:41;;;;;;;15.93;4.35;;;33.40;56.40;;;;;;5013881;28;20030;-75
2022/06/19 09:33:36;;;;;;;20.05;5.22;;;33.50;56.40;;;;;;5016640;28;22467;-74
2022/06/19 09:36:08;;;;;;;17.95;4.82;;;33.70;55.50;;;;;;4992138;28;20045;-75
2022/06/19 09:38:51;;;;;;;20.45;4.50;;;33.80;54.20;;;;;;5021700;28;20036;-75
2022/06/19 09:41:40;;;;;;;;;;;33.90;54.40;;;;;;5025517;28;20041;-74
2022/06/19 09:44:21;;;;;;;15.90;4.55;;;33.90;53.60;;;;;;5000883;28;19909;-75
2022/06/19 09:47:05;;;;;;;19.33;4.53;;;33.80;54.50;;;;;;5009757;28;20029;-74
2022/06/19 09:49:49;;;;;;;14.38;4.65;;;33.90;54.00;;;;;;5009619;28;20038;-74
2022/06/19 09:52:20;;;;;;;18.92;4.50;;;34.10;54.30;;;;;;5008823;28;20041;-75
2022/06/19 09:55:01;;;;;;;16.75;4.63;;;34.20;55.10;;;;;;5008395;28;20041;-75
2022/06/19 09:57:32;;;;;;;17.13;5.00;;;34.30;54.80;;;;;;5008079;28;20080;-74
2022/06/19 10:00:04;;;;;;;19.45;5.00;;;34.40;54.80;;;;;;5013811;28;20038;-75
2022/06/19 10:02:42;;;;;;;14.57;4.60;;;34.50;54.50;;;;;;5018858;28;20056;-74
2022/06/19 10:05:28;;;;;;;16.30;4.60;;;34.50;53.90;;;;;;5026105;28;20040;-75
2022/06/19 10:08:20;;;;;;;19.13;4.53;;;34.30;54.30;;;;;;5012533;28;20030;-74
2022/06/19 10:10:59;;;;;;;20.33;4.55;;;34.20;54.80;;;;;;5007791;28;20411;-74
2022/06/19 10:13:44;;;;;;;19.73;5.15;;;34.10;54.90;;;;;;5009324;28;20033;-74
2022/06/19 10:16:50;;;;;;;15.30;4.80;;;34.10;55.50;;;;;;5008619;28;20415;-75
2022/06/19 10:19:24;;;;;;;12.35;4.07;;;34.20;54.10;;;;;;5015634;28;20486;-74
2022/06/19 10:22:23;;;;;;;17.52;4.20;;;34.50;56.00;;;;;;5016972;28;20052;-74
2022/06/19 10:25:25;;;;;;;16.25;4.10;;;34.30;56.70;;;;;;5019929;28;20026;-74
2022/06/19 10:28:10;;;;;;;10.40;3.65;;;33.70;57.80;;;;;;5015896;28;20510;-78
2022/06/19 10:30:48;;;;;;;19.58;3.67;;;33.30;58.30;;;;;;5009498;28;20037;-78
2022/06/19 10:33:24;;;;;;;11.25;3.35;;;33.00;59.30;;;;;;4669663;28;10000385;-78
2022/06/19 10:36:07;;;;;;;10.98;3.45;;;32.80;59.40;;;;;;5014674;28;20026;-77
2022/06/19 10:39:08;;;;;;;10.77;3.33;;;32.50;60.70;;;;;;5015599;28;20033;-77
2022/06/19 10:42:11;;;;;;;9.70;3.13;;;32.40;61.00;;;;;;5001838;28;20029;-79
2022/06/19 10:44:52;;;;;;;14.45;3.03;;;32.30;61.20;;;;;;5011318;28;20025;-74
2022/06/19 10:47:24;;;;;;;17.75;3.75;;;;;;;;;;5015335;28;20037;-79
2022/06/19 10:50:08;;;;;;;18.77;3.45;;;31.00;59.70;;;;;;5021380;28;20047;-76
2022/06/19 10:52:46;;;;;;;12.40;3.33;;;30.90;77.00;;;;;;5011920;28;20706;-77
2022/06/19 10:55:21;;;;;;;23.92;3.70;;;30.50;72.20;;;;;;5018204;28;20041;-77
2022/06/19 10:57:50;;;;;;;13.23;3.70;;;30.20;73.80;;;;;;5023465;28;20026;-77
2022/06/19 11:00:15;;;;;;;12.13;3.17;;;29.90;74.20;;;;;;5019700;28;20061;-76
2022/06/19 11:06:14;;;;;;;14.23;3.35;;;29.90;73.80;;;;;;5025114;28;20048;-76
2022/06/19 11:08:45;;;;;;;17.98;3.80;;;29.80;73.50;;;;;;5023834;28;20116;-77
2022/06/19 11:11:15;;;;;;;25.40;4.13;;;29.80;76.50;;;;;;5016894;28;20129;-77
2022/06/19 11:13:58;;;;;;;11.43;3.58;;;29.70;77.20;;;;;;5021625;28;20029;-76
2022/06/19 11:16:24;;;;;;;13.73;4.10;;;29.80;77.20;;;;;;5019606;28;20040;-77
2022/06/19 11:18:54;;;;;;;16.00;4.05;;;29.80;78.20;;;;;;5019083;28;20018;-78
2022/06/19 11:21:24;;;;;;;20.67;3.92;;;29.90;77.10;;;;;;5021028;28;20041;-77
2022/06/19 11:23:50;;;;;;;14.85;3.55;;;30.10;76.70;;;;;;5023906;28;20048;-78
2022/06/19 11:26:43;;;;;;;13.82;4.32;;;30.20;76.30;;;;;;5020263;28;20041;-79
2022/06/19 11:29:20;;;;;;;14.65;4.00;;;30.40;76.10;;;;;;5016278;28;22189;-77
2022/06/19 11:32:05;;;;;;;17.40;4.25;;;30.50;75.90;;;;;;5009208;28;20036;-79
2022/06/19 11:34:44;;;;;;;12.48;3.75;;;30.70;77.20;;;;;;5024226;28;20053;-78
2022/06/19 11:37:17;;;;;;;14.30;3.75;;;30.90;76.10;;;;;;5016712;28;20079;-78
2022/06/19 11:39:49;;;;;;;18.60;4.22;;;31.10;76.40;;;;;;5020996;28;20504;-79
2022/06/19 11:42:22;;;;;;;11.13;4.17;;;31.30;74.40;;;;;;5016431;28;20045;-75
2022/06/19 11:45:21;;;;;;;14.00;4.38;;;31.40;73.10;;;;;;5013022;28;20838;-78
2022/06/19 11:47:55;;;;;;;15.10;4.25;;;;;;;;;;5018144;28;20029;-76
2022/06/19 11:50:32;;;;;;;15.88;4.38;;;30.80;59.30;;;;;;5016951;28;20040;-80
2022/06/19 11:53:21;;;;;;;17.65;4.15;;;30.60;62.10;;;;;;5021186;28;20044;-76
2022/06/19 11:55:53;;;;;;;11.57;4.60;;;30.70;63.40;;;;;;5022049;28;20363;-79
2022/06/19 11:58:26;;;;;;;12.17;4.73;;;30.80;62.10;;;;;;5018468;28;20106;-77
2022/06/19 12:00:57;;;;;;;13.32;3.88;;;31.00;60.50;;;;;;5017682;28;20292;-77
2022/06/19 12:03:31;;;;;;;12.77;4.13;;;31.10;60.40;;;;;;5018937;28;20022;-82
2022/06/19 12:06:05;;;;;;;17.50;4.28;;;31.30;59.60;;;;;;5017053;28;20030;-82
2022/06/19 12:08:39;;;;;;;13.73;4.00;;;31.40;61.90;;;;;;5020026;28;20036;-82
2022/06/19 12:11:08;;;;;;;14.00;4.32;;;31.40;60.50;;;;;;5019011;28;20113;-80
2022/06/19 12:13:40;;;;;;;19.23;4.82;;;31.20;61.60;;;;;;5024034;28;20401;-79
2022/06/19 12:16:19;;;;;;;21.13;5.00;;;30.90;62.40;;;;;;5020710;28;20049;-81
2022/06/19 12:18:45;;;;;;;14.43;4.40;;;30.50;61.70;;;;;;5023387;28;20304;-82
2022/06/19 12:21:48;;;;;;;14.10;5.03;;;30.40;63.70;;;;;;5017853;28;20431;-78
2022/06/19 12:24:21;;;;;;;16.30;5.20;;;30.30;62.40;;;;;;5018022;28;20060;-80
2022/06/19 12:26:49;;;;;;;;;;;30.30;62.90;;;;;;5027028;28;20059;-79
2022/06/19 12:29:36;;;;;;;13.15;4.85;;;30.30;63.20;;;;;;5023309;28;19913;-81
2022/06/19 12:32:26;;;;;;;11.48;4.50;;;30.20;64.30;;;;;;5018291;28;20137;-81
2022/06/19 12:34:55;;;;;;;16.20;4.28;;;30.00;64.20;;;;;;5014751;28;20049;-83
2022/06/19 12:37:23;;;;;;;14.98;4.85;;;29.80;65.60;;;;;;5025532;28;20029;-80
2022/06/19 12:39:49;;;;;;;17.48;5.00;;;29.90;66.30;;;;;;5025019;28;20064;-80
2022/06/19 12:42:30;;;;;;;15.52;4.35;;;29.90;65.30;;;;;;5025376;28;20033;-80
2022/06/19 12:45:29;;;;;;;10.82;4.68;;;30.20;66.60;;;;;;5024482;28;20045;-79
2022/06/19 12:48:32;;;;;;;14.90;4.68;;;30.50;64.40;;;;;;5018073;28;20367;-78
2022/06/19 12:51:20;;;;;;;16.92;4.60;;;30.80;64.50;;;;;;5021764;28;20021;-80
2022/06/19 12:54:15;;;;;;;16.95;4.50;;;30.70;62.40;;;;;;5021108;28;20025;-80
2022/06/19 12:57:20;;;;;;;17.98;4.68;;;30.50;63.90;;;;;;4989058;28;20042;-78
2022/06/19 13:00:19;;;;;;;17.45;4.50;;;30.40;64.10;;;;;;5003400;28;20052;-79
2022/06/19 13:03:33;;;;;;;17.02;4.35;;;30.30;64.20;;;;;;5025862;28;20049;-78
2022/06/19 13:06:17;;;;;;;12.77;4.10;;;30.30;63.70;;;;;;5006412;28;20049;-80
2022/06/19 13:09:18;;;;;;;15.23;4.70;;;30.50;62.80;;;;;;5024476;28;20033;-77
2022/06/19 13:11:57;;;;;;;15.68;4.30;;;30.80;62.00;;;;;;4991945;28;20043;-78
2022/06/19 13:15:05;;;;;;;13.88;4.20;;;30.90;62.30;;;;;;5019937;28;20115;-78
2022/06/19 13:17:58;;;;;;;13.82;4.30;;;31.10;62.50;;;;;;4981464;28;20088;-78